createdAt,value
2023-05-15T00:01:04.498Z,4.95
2023-05-15T00:03:36.325Z,6.65
2023-05-15T00:06:08.009Z,6.28
2023-05-15T00:08:39.832Z,6.18
2023-05-15T00:11:11.565Z,10.27
2023-05-15T00:13:43.105Z,5.70
2023-05-15T00:16:14.667Z,7.30
2023-05-15T00:18:46.296Z,7.35
2023-05-15T00:21:17.906Z,7.25
2023-05-15T00:23:53.976Z,6.90
2023-05-15T00:26:25.581Z,6.53
2023-05-15T00:28:57.896Z,8.43
2023-05-15T00:34:01.096Z,6.85
2023-05-15T00:36:32.846Z,7.63
2023-05-15T00:39:04.574Z,9.88
2023-05-15T00:41:36.878Z,7.22
2023-05-15T00:46:43.264Z,6.72
2023-05-15T00:49:16.675Z,5.90
2023-05-15T00:51:48.198Z,8.38
2023-05-15T00:54:20.060Z,6.88
2023-05-15T00:56:52.885Z,6.80
2023-05-15T00:59:27.760Z,7.63
2023-05-15T01:01:59.382Z,8.20
2023-05-15T01:04:30.951Z,6.72
2023-05-15T01:07:02.425Z,6.55
2023-05-15T01:09:35.747Z,9.03
2023-05-15T01:12:08.136Z,9.70
2023-05-15T01:14:39.766Z,7.40
2023-05-15T01:17:11.550Z,8.25
2023-05-15T01:19:44.521Z,7.00
2023-05-15T01:22:30.302Z,6.00
2023-05-15T01:25:23.397Z,6.85
2023-05-15T01:27:58.817Z,8.10
2023-05-15T01:30:36.159Z,8.35
2023-05-15T01:33:12.744Z,7.68
2023-05-15T01:35:50.428Z,8.45
2023-05-15T01:38:32.257Z,7.35
2023-05-15T01:41:15.909Z,8.55
2023-05-15T01:43:52.042Z,8.32
2023-05-15T01:46:24.585Z,9.38
2023-05-15T01:48:58.155Z,9.40
2023-05-15T01:51:31.319Z,8.75
2023-05-15T01:54:05.251Z,8.43
2023-05-15T01:56:37.936Z,10.48
2023-05-15T01:59:09.639Z,8.77
2023-05-15T02:01:42.452Z,11.77
2023-05-15T02:04:15.389Z,9.70
2023-05-15T02:06:47.667Z,8.90
2023-05-15T02:11:53.134Z,12.70
2023-05-15T02:16:56.442Z,10.55
2023-05-15T02:19:28.021Z,9.52
2023-05-15T02:21:59.577Z,10.13
2023-05-15T02:24:31.104Z,10.38
2023-05-15T02:27:04.694Z,9.87
2023-05-15T02:30:10.202Z,8.93
2023-05-15T02:33:14.239Z,11.40
2023-05-15T02:36:05.216Z,10.07
2023-05-15T02:38:52.906Z,10.20
2023-05-15T02:41:25.005Z,10.15
2023-05-15T02:43:56.900Z,8.98
2023-05-15T02:46:29.927Z,10.38
2023-05-15T02:49:02.124Z,10.93
2023-05-15T02:51:33.651Z,10.38
2023-05-15T02:54:09.552Z,9.90
2023-05-15T02:56:41.067Z,10.40
2023-05-15T02:59:18.585Z,9.45
2023-05-15T03:01:50.648Z,7.75
2023-05-15T03:04:22.561Z,8.07
2023-05-15T03:06:54.119Z,8.30
2023-05-15T03:09:26.026Z,8.75
2023-05-15T03:11:57.607Z,8.27
2023-05-15T03:14:29.132Z,7.63
2023-05-15T03:17:00.636Z,7.25
2023-05-15T03:19:32.186Z,7.43
2023-05-15T03:22:03.847Z,6.57
2023-05-15T03:24:35.377Z,9.77
2023-05-15T03:27:06.877Z,8.50
2023-05-15T03:29:38.716Z,7.10
2023-05-15T03:32:10.299Z,7.53
2023-05-15T03:34:41.924Z,5.85
2023-05-15T03:37:13.547Z,7.50
2023-05-15T03:39:45.032Z,6.75
2023-05-15T03:42:22.488Z,6.38
2023-05-15T03:44:55.090Z,9.00
2023-05-15T03:47:26.727Z,7.13
2023-05-15T03:49:58.517Z,7.43
2023-05-15T03:52:30.125Z,14.93
2023-05-15T03:55:01.786Z,10.20
2023-05-15T03:57:35.520Z,6.13
2023-05-15T04:00:10.842Z,7.38
2023-05-15T04:02:42.645Z,8.52
2023-05-15T04:05:14.359Z,9.50
2023-05-15T04:07:45.987Z,8.00
2023-05-15T04:10:17.580Z,7.50
2023-05-15T04:12:49.065Z,6.10
2023-05-15T04:15:23.023Z,9.80
2023-05-15T04:17:55.198Z,10.00
2023-05-15T04:20:26.854Z,7.78
2023-05-15T04:22:58.423Z,10.10
2023-05-15T04:25:29.917Z,22.13
2023-05-15T04:28:01.584Z,7.97
2023-05-15T04:30:33.117Z,8.05
2023-05-15T04:33:04.740Z,8.27
2023-05-15T04:35:36.277Z,10.23
2023-05-15T04:38:09.420Z,11.82
2023-05-15T04:40:41.022Z,8.73
2023-05-15T04:43:13.460Z,8.13
2023-05-15T04:45:45.310Z,9.63
2023-05-15T04:48:19.223Z,10.55
2023-05-15T04:50:51.882Z,10.52
2023-05-15T04:53:23.412Z,9.13
2023-05-15T04:55:54.976Z,8.45
2023-05-15T04:58:26.608Z,13.48
2023-05-15T05:00:58.228Z,8.15
2023-05-15T05:03:29.938Z,11.32
2023-05-15T05:06:01.482Z,6.35
2023-05-15T05:08:33.029Z,7.30
2023-05-15T05:11:05.642Z,8.18
2023-05-15T05:13:37.297Z,8.35
2023-05-15T05:16:08.951Z,15.82
2023-05-15T05:18:40.563Z,6.47
2023-05-15T05:21:12.036Z,7.45
2023-05-15T05:23:43.565Z,8.70
2023-05-15T05:26:15.311Z,8.02
2023-05-15T05:28:47.656Z,10.02
2023-05-15T05:33:52.615Z,7.30
2023-05-15T05:36:25.427Z,8.93
2023-05-15T05:38:56.967Z,8.68
2023-05-15T05:41:28.434Z,13.88
2023-05-15T05:43:59.871Z,8.83
2023-05-15T05:46:31.461Z,9.00
2023-05-15T05:49:03.315Z,11.52
2023-05-15T05:51:37.032Z,9.60
2023-05-15T05:54:08.798Z,12.48
2023-05-15T05:56:41.298Z,11.00
2023-05-15T05:59:12.884Z,7.60
2023-05-15T06:01:44.576Z,8.38
2023-05-15T06:04:18.183Z,8.88
2023-05-15T06:06:50.323Z,9.38
2023-05-15T06:09:21.957Z,9.00
2023-05-15T06:11:53.520Z,9.05
2023-05-15T06:14:25.146Z,13.82
2023-05-15T06:16:56.677Z,8.77
2023-05-15T06:19:29.100Z,9.15
2023-05-15T06:22:01.693Z,8.15
2023-05-15T06:24:33.413Z,7.93
2023-05-15T06:27:05.158Z,8.70
2023-05-15T06:29:36.773Z,8.20
2023-05-15T06:32:08.552Z,8.10
2023-05-15T06:34:40.031Z,7.47
2023-05-15T06:37:12.404Z,8.18
2023-05-15T06:39:43.903Z,8.27
2023-05-15T06:42:15.537Z,6.55
2023-05-15T06:44:47.683Z,6.95
2023-05-15T06:47:19.547Z,7.40
2023-05-15T06:49:51.049Z,7.05
2023-05-15T06:52:22.569Z,6.93
2023-05-15T06:54:54.205Z,7.95
2023-05-15T06:57:26.325Z,7.72
2023-05-15T06:59:57.862Z,6.35
2023-05-15T07:02:29.346Z,7.43
2023-05-15T07:05:00.899Z,7.20
2023-05-15T07:07:32.512Z,7.38
2023-05-15T07:10:04.702Z,5.88
2023-05-15T07:12:36.254Z,6.47
2023-05-15T07:15:08.120Z,6.72
2023-05-15T07:17:39.778Z,6.32
2023-05-15T07:20:11.645Z,5.57
2023-05-15T07:22:54.965Z,11.32
2023-05-15T07:25:27.285Z,4.53
2023-05-15T07:27:58.973Z,4.60
2023-05-15T07:30:30.536Z,7.30
2023-05-15T07:33:02.162Z,6.40
2023-05-15T07:35:33.724Z,7.50
2023-05-15T07:38:05.293Z,5.88
2023-05-15T07:40:37.006Z,5.57
2023-05-15T07:43:08.816Z,5.43
2023-05-15T07:45:40.437Z,9.98
2023-05-15T07:48:15.653Z,6.43
2023-05-15T07:50:47.865Z,9.20
2023-05-15T07:55:51.200Z,6.43
2023-05-15T07:58:23.438Z,4.18
2023-05-15T08:03:26.516Z,6.07
2023-05-15T08:05:58.181Z,4.20
2023-05-15T08:08:29.793Z,4.68
2023-05-15T08:11:01.400Z,5.75
2023-05-15T08:13:33.162Z,5.28
2023-05-15T08:16:05.583Z,4.07
2023-05-15T08:18:37.362Z,6.85
2023-05-15T08:21:09.073Z,4.85
2023-05-15T08:23:40.717Z,5.30
2023-05-15T08:26:12.352Z,4.05
2023-05-15T08:28:44.864Z,7.22
2023-05-15T08:31:16.560Z,6.20
2023-05-15T08:33:48.138Z,5.00
2023-05-15T08:36:19.834Z,5.57
2023-05-15T08:38:51.825Z,4.75
2023-05-15T08:41:40.583Z,6.93
2023-05-15T08:44:13.273Z,5.75
2023-05-15T08:49:33.114Z,6.05
2023-05-15T08:52:05.556Z,4.35
2023-05-15T08:54:37.681Z,4.45
2023-05-15T08:57:10.571Z,9.88
2023-05-15T08:59:42.637Z,3.65
2023-05-15T09:02:15.724Z,6.20
2023-05-15T09:04:47.637Z,7.80
2023-05-15T09:07:20.445Z,3.30
2023-05-15T09:09:53.271Z,4.15
2023-05-15T09:12:27.118Z,6.22
2023-05-15T09:15:11.193Z,4.30
2023-05-15T09:17:43.287Z,5.53
2023-05-15T09:23:01.809Z,5.43
2023-05-15T09:25:39.804Z,4.47
2023-05-15T09:28:32.037Z,4.07
2023-05-15T09:31:05.730Z,4.28
2023-05-15T09:33:39.599Z,3.13
2023-05-15T09:36:11.573Z,9.15
2023-05-15T09:38:43.633Z,8.43
2023-05-15T09:41:15.254Z,8.40
2023-05-15T09:43:46.782Z,5.93
2023-05-15T09:46:18.575Z,8.65
2023-05-15T09:48:54.507Z,4.53
2023-05-15T09:51:27.769Z,4.60
2023-05-15T09:53:59.431Z,5.10
2023-05-15T09:56:32.775Z,3.60
2023-05-15T09:59:04.319Z,5.03
2023-05-15T10:01:36.639Z,4.25
2023-05-15T10:04:08.673Z,3.90
2023-05-15T10:06:52.624Z,4.18
2023-05-15T10:09:31.025Z,5.95
2023-05-15T10:12:04.167Z,6.03
2023-05-15T10:14:35.699Z,4.78
2023-05-15T10:17:08.756Z,6.05
2023-05-15T10:19:56.599Z,5.15
2023-05-15T10:22:30.874Z,4.80
2023-05-15T10:25:28.965Z,4.70
2023-05-15T10:28:01.263Z,4.93
2023-05-15T10:30:33.295Z,4.40
2023-05-15T10:33:06.872Z,4.90
2023-05-15T10:35:40.803Z,4.20
2023-05-15T10:38:13.610Z,4.95
2023-05-15T10:40:45.652Z,3.53
2023-05-15T10:43:19.077Z,4.63
2023-05-15T10:45:53.158Z,3.72
2023-05-15T10:48:26.165Z,5.35
2023-05-15T10:51:01.334Z,3.58
2023-05-15T10:53:34.133Z,4.93
2023-05-15T10:56:06.037Z,6.20
2023-05-15T10:58:37.656Z,3.65
2023-05-15T11:01:28.571Z,6.85
2023-05-15T11:04:13.704Z,4.68
2023-05-15T11:06:47.791Z,3.35
2023-05-15T11:09:27.458Z,2.97
2023-05-15T11:12:21.032Z,8.63
2023-05-15T11:14:52.508Z,2.55
2023-05-15T11:17:24.423Z,3.00
2023-05-15T11:19:57.903Z,2.70
2023-05-15T11:22:36.129Z,4.15
2023-05-15T11:25:14.560Z,2.92
2023-05-15T11:27:46.550Z,4.28
2023-05-15T11:30:22.528Z,4.70
2023-05-15T11:33:00.157Z,3.42
2023-05-15T11:35:47.944Z,3.03
2023-05-15T11:38:25.017Z,2.13
2023-05-15T11:41:00.385Z,2.65
2023-05-15T11:43:33.629Z,2.20
2023-05-15T11:46:08.969Z,6.32
2023-05-15T11:48:42.528Z,3.83
2023-05-15T11:51:25.044Z,2.03
2023-05-15T11:53:57.077Z,5.38
2023-05-15T11:56:30.092Z,6.95
2023-05-15T11:59:02.405Z,3.25
2023-05-15T12:01:47.183Z,7.00
2023-05-15T12:04:19.661Z,1.85
2023-05-15T12:06:51.621Z,1.00
2023-05-15T12:09:27.313Z,3.45
2023-05-15T12:11:58.936Z,6.32
2023-05-15T12:14:31.478Z,1.33
2023-05-15T12:17:04.393Z,2.20
2023-05-15T12:19:38.208Z,5.15
2023-05-15T12:22:09.763Z,4.93
2023-05-15T12:24:42.835Z,5.72
2023-05-15T12:27:14.977Z,5.93
2023-05-15T12:32:18.330Z,1.60
2023-05-15T12:34:50.119Z,4.05
2023-05-15T12:37:21.723Z,2.83
2023-05-15T12:39:54.918Z,4.50
2023-05-15T12:42:26.694Z,6.15
2023-05-15T12:44:58.272Z,3.15
2023-05-15T12:47:30.800Z,2.40
2023-05-15T12:50:02.800Z,2.83
2023-05-15T12:52:34.397Z,5.50
2023-05-15T12:55:06.189Z,2.67
2023-05-15T12:57:38.256Z,3.88
2023-05-15T13:00:14.422Z,4.18
2023-05-15T13:02:46.500Z,3.88
2023-05-15T13:07:51.880Z,5.50
2023-05-15T13:10:24.726Z,3.20
2023-05-15T13:12:57.823Z,3.15
2023-05-15T13:15:39.366Z,5.00
2023-05-15T13:18:16.426Z,4.07
2023-05-15T13:20:51.791Z,3.78
2023-05-15T13:23:25.563Z,3.55
2023-05-15T13:25:57.494Z,2.70
2023-05-15T13:28:30.410Z,2.67
2023-05-15T13:31:07.946Z,2.25
2023-05-15T13:33:39.577Z,1.92
2023-05-15T13:36:16.632Z,4.75
2023-05-15T13:38:48.187Z,3.70
2023-05-15T13:41:19.999Z,2.30
2023-05-15T13:43:51.568Z,6.03
2023-05-15T13:46:24.218Z,5.45
2023-05-15T13:48:55.863Z,4.68
2023-05-15T13:51:30.861Z,5.22
2023-05-15T13:54:02.671Z,2.60
2023-05-15T13:56:35.317Z,2.88
2023-05-15T13:59:07.877Z,1.70
2023-05-15T14:01:41.724Z,5.18
2023-05-15T14:04:14.139Z,2.17
2023-05-15T14:06:46.309Z,2.10
2023-05-15T14:09:17.813Z,1.65
2023-05-15T14:11:49.303Z,2.13
2023-05-15T14:14:22.322Z,2.72
2023-05-15T14:16:54.607Z,3.00
2023-05-15T14:19:27.289Z,3.75
2023-05-15T14:21:59.672Z,5.63
2023-05-15T14:24:32.286Z,8.05
2023-05-15T14:27:04.850Z,8.40
2023-05-15T14:29:38.140Z,6.43
2023-05-15T14:32:12.285Z,10.00
2023-05-15T14:34:46.939Z,6.78
2023-05-15T14:37:20.626Z,8.85
2023-05-15T14:39:53.112Z,6.85
2023-05-15T14:42:35.397Z,4.20
2023-05-15T14:45:07.647Z,3.38
2023-05-15T14:50:12.103Z,7.15
2023-05-15T14:52:46.478Z,6.18
2023-05-15T14:55:24.301Z,3.30
2023-05-15T14:57:59.249Z,6.57
2023-05-15T15:00:30.928Z,4.90
2023-05-15T15:03:04.007Z,5.47
2023-05-15T15:05:37.025Z,7.15
2023-05-15T15:08:10.369Z,6.88
2023-05-15T15:10:43.776Z,6.07
2023-05-15T15:13:17.000Z,7.45
2023-05-15T15:15:53.801Z,6.78
2023-05-15T15:18:28.005Z,3.65
2023-05-15T15:21:07.662Z,4.20
2023-05-15T15:23:39.813Z,2.58
2023-05-15T15:26:11.693Z,2.35
2023-05-15T15:28:43.287Z,5.57
2023-05-15T15:31:17.040Z,2.55
2023-05-15T15:33:48.592Z,4.10
2023-05-15T15:36:21.482Z,2.63
2023-05-15T15:38:57.961Z,2.15
2023-05-15T15:41:32.498Z,4.30
2023-05-15T15:44:04.813Z,3.63
2023-05-15T15:49:08.159Z,3.03
2023-05-15T15:51:43.392Z,3.75
2023-05-15T15:54:15.109Z,5.50
2023-05-15T15:56:48.403Z,5.00
2023-05-15T15:59:20.495Z,5.32
2023-05-15T16:01:53.549Z,5.38
2023-05-15T16:04:25.085Z,4.50
2023-05-15T16:06:56.787Z,2.85
2023-05-15T16:09:29.275Z,5.00
2023-05-15T16:12:01.849Z,5.50
2023-05-15T16:14:33.429Z,4.47
2023-05-15T16:17:05.025Z,2.13
2023-05-15T16:19:36.562Z,1.85
2023-05-15T16:22:08.196Z,4.35
2023-05-15T16:24:40.886Z,4.22
2023-05-15T16:27:12.713Z,5.22
2023-05-15T16:29:44.480Z,1.95
2023-05-15T16:32:18.596Z,2.10
2023-05-15T16:34:55.143Z,2.10
2023-05-15T16:37:27.051Z,4.53
2023-05-15T16:39:58.730Z,3.58
2023-05-15T16:42:36.136Z,1.70
2023-05-15T16:45:08.748Z,3.92
2023-05-15T16:47:41.238Z,1.67
2023-05-15T16:50:18.572Z,3.20
2023-05-15T16:52:50.319Z,1.50
2023-05-15T16:55:22.318Z,1.42
2023-05-15T16:57:53.934Z,1.95
2023-05-15T17:00:25.682Z,3.65
2023-05-15T17:02:57.724Z,2.58
2023-05-15T17:05:29.467Z,2.92
2023-05-15T17:08:01.220Z,2.53
2023-05-15T17:10:32.781Z,2.65
2023-05-15T17:13:04.672Z,2.15
2023-05-15T17:15:36.533Z,2.38
2023-05-15T17:18:08.355Z,2.38
2023-05-15T17:20:40.065Z,4.97
2023-05-15T17:23:11.790Z,2.10
2023-05-15T17:25:43.445Z,3.13
2023-05-15T17:28:15.593Z,1.75
2023-05-15T17:30:47.858Z,1.90
2023-05-15T17:35:50.906Z,2.50
2023-05-15T17:38:23.249Z,2.65
2023-05-15T17:40:55.517Z,2.15
2023-05-15T17:46:00.307Z,3.05
2023-05-15T17:48:32.886Z,3.67
2023-05-15T17:51:04.411Z,2.53
2023-05-15T17:53:37.082Z,6.35
2023-05-15T17:56:08.707Z,2.58
2023-05-15T17:58:40.268Z,7.05
2023-05-15T18:01:12.207Z,2.53
2023-05-15T18:03:44.054Z,3.58
2023-05-15T18:06:15.688Z,2.50
2023-05-15T18:08:47.884Z,2.58
2023-05-15T18:13:54.475Z,3.70
2023-05-15T18:16:26.144Z,5.10
2023-05-15T18:18:59.443Z,6.20
2023-05-15T18:21:31.127Z,4.72
2023-05-15T18:24:02.711Z,4.38
2023-05-15T18:26:34.356Z,4.20
2023-05-15T18:29:05.946Z,5.88
2023-05-15T18:31:37.958Z,5.18
2023-05-15T18:34:09.530Z,3.97
2023-05-15T18:36:41.028Z,13.80
2023-05-15T18:39:12.642Z,13.57
2023-05-15T18:41:44.409Z,5.40
2023-05-15T18:44:16.190Z,4.60
2023-05-15T18:46:47.863Z,2.90
2023-05-15T18:49:19.459Z,3.03
2023-05-15T18:51:50.942Z,4.80
2023-05-15T18:54:22.513Z,10.48
2023-05-15T18:56:54.276Z,5.00
2023-05-15T18:59:27.149Z,3.05
2023-05-15T19:01:58.824Z,2.65
2023-05-15T19:04:30.478Z,12.23
2023-05-15T19:07:03.311Z,3.17
2023-05-15T19:09:35.741Z,3.38
2023-05-15T19:12:07.569Z,2.70
2023-05-15T19:14:39.182Z,2.42
2023-05-15T19:17:10.816Z,1.58
2023-05-15T19:19:43.134Z,1.50
2023-05-15T19:24:50.802Z,2.00
2023-05-15T19:27:22.352Z,1.85
2023-05-15T19:29:55.013Z,3.95
2023-05-15T19:32:26.655Z,3.65
2023-05-15T19:34:59.082Z,2.78
2023-05-15T19:40:02.312Z,3.20
2023-05-15T19:42:33.867Z,2.85
2023-05-15T19:45:07.393Z,7.53
2023-05-15T19:47:39.013Z,2.50
2023-05-15T19:50:10.700Z,2.00
2023-05-15T19:52:45.215Z,4.40
2023-05-15T19:55:17.442Z,2.13
2023-05-15T19:57:49.364Z,3.50
2023-05-15T20:00:21.432Z,2.83
2023-05-15T20:02:53.180Z,1.98
2023-05-15T20:05:24.955Z,3.65
2023-05-15T20:07:56.626Z,3.05
2023-05-15T20:10:29.022Z,6.82
2023-05-15T20:13:01.097Z,3.35
2023-05-15T20:15:35.914Z,4.25
2023-05-15T20:18:07.695Z,2.75
2023-05-15T20:20:40.662Z,3.25
2023-05-15T20:23:12.609Z,2.35
2023-05-15T20:25:44.183Z,2.08
2023-05-15T20:28:17.964Z,1.75
2023-05-15T20:30:49.506Z,2.50
2023-05-15T20:33:21.147Z,1.85
2023-05-15T20:35:54.018Z,4.32
2023-05-15T20:38:26.872Z,3.92
2023-05-15T20:41:00.719Z,2.40
2023-05-15T20:43:32.326Z,2.40
2023-05-15T20:46:03.988Z,1.80
2023-05-15T20:48:36.281Z,2.15
2023-05-15T20:53:40.261Z,2.08
2023-05-15T20:56:12.784Z,1.42
2023-05-15T20:58:44.523Z,3.17
2023-05-15T21:01:16.232Z,7.07
2023-05-15T21:03:48.042Z,4.20
2023-05-15T21:06:19.914Z,2.78
2023-05-15T21:08:51.830Z,4.60
2023-05-15T21:11:23.810Z,8.82
2023-05-15T21:13:56.772Z,7.03
2023-05-15T21:16:29.206Z,6.05
2023-05-15T21:19:01.329Z,6.15
2023-05-15T21:21:32.970Z,3.30
2023-05-15T21:24:06.100Z,2.10
2023-05-15T21:26:38.719Z,2.92
2023-05-15T21:29:10.229Z,3.17
2023-05-15T21:31:42.162Z,3.80
2023-05-15T21:34:13.736Z,4.10
2023-05-15T21:36:45.290Z,5.20
2023-05-15T21:39:16.964Z,5.82
2023-05-15T21:41:49.632Z,2.85
2023-05-15T21:44:21.409Z,8.00
2023-05-15T21:46:53.269Z,5.28
2023-05-15T21:49:27.614Z,3.58
2023-05-15T21:52:00.588Z,4.05
2023-05-15T21:54:32.115Z,4.05
2023-05-15T21:57:03.800Z,3.67
2023-05-15T21:59:35.463Z,7.93
2023-05-15T22:02:07.437Z,10.77
2023-05-15T22:04:39.548Z,3.50
2023-05-15T22:07:11.268Z,5.28
2023-05-15T22:09:44.764Z,2.97
2023-05-15T22:12:16.319Z,4.78
2023-05-15T22:14:58.376Z,16.75
2023-05-15T22:17:31.212Z,18.13
2023-05-15T22:20:13.824Z,8.00
2023-05-15T22:25:16.933Z,5.13
2023-05-15T22:27:48.744Z,6.32
2023-05-15T22:30:20.919Z,4.28
2023-05-15T22:35:24.031Z,1.80
2023-05-15T22:37:55.923Z,2.30
2023-05-15T22:40:27.673Z,2.53
2023-05-15T22:42:59.336Z,3.13
2023-05-15T22:45:31.326Z,4.80
2023-05-15T22:48:03.708Z,3.20
2023-05-15T22:50:36.273Z,3.13
2023-05-15T22:53:07.781Z,2.33
2023-05-15T22:55:39.362Z,4.22
2023-05-15T22:58:11.013Z,3.35
2023-05-15T23:00:42.575Z,1.90
2023-05-15T23:03:15.887Z,3.83
2023-05-15T23:05:47.610Z,4.63
2023-05-15T23:08:20.486Z,1.58
2023-05-15T23:10:55.492Z,3.38
2023-05-15T23:13:27.052Z,2.08
2023-05-15T23:15:58.753Z,2.40
2023-05-15T23:18:30.334Z,2.03
2023-05-15T23:21:02.481Z,2.75
2023-05-15T23:23:33.963Z,4.32
2023-05-15T23:26:05.468Z,2.42
2023-05-15T23:28:37.252Z,2.63
2023-05-15T23:31:09.932Z,5.15
2023-05-15T23:33:41.722Z,4.47
2023-05-15T23:36:13.225Z,2.80
2023-05-15T23:38:45.517Z,2.63
2023-05-15T23:43:50.461Z,2.35
2023-05-15T23:46:22.054Z,3.20
2023-05-15T23:48:53.673Z,2.33
2023-05-15T23:51:25.530Z,4.85
2023-05-15T23:53:57.047Z,2.45
2023-05-15T23:56:28.609Z,3.03
2023-05-15T23:59:00.775Z,2.60
